createdAt,value
2023-05-16T00:02:16.211Z,98.21
2023-05-16T00:04:42.709Z,97.37
2023-05-16T00:07:09.183Z,96.67
2023-05-16T00:09:35.642Z,99.36
2023-05-16T00:12:02.080Z,98.59
2023-05-16T00:14:28.951Z,99.99
2023-05-16T00:16:57.660Z,98.65
2023-05-16T00:19:24.260Z,99.20
2023-05-16T00:21:51.128Z,100.00
2023-05-16T00:24:17.599Z,100.00
2023-05-16T00:26:44.183Z,100.00
2023-05-16T00:29:10.647Z,100.00
2023-05-16T00:31:37.123Z,100.00
2023-05-16T00:34:03.590Z,100.00
2023-05-16T00:36:31.687Z,100.00
2023-05-16T00:38:58.105Z,100.00
2023-05-16T00:41:25.388Z,100.00
2023-05-16T00:43:51.848Z,100.00
2023-05-16T00:46:18.327Z,100.00
2023-05-16T00:48:45.102Z,100.00
2023-05-16T00:51:11.648Z,100.00
2023-05-16T00:53:38.060Z,100.00
2023-05-16T00:56:06.729Z,100.00
2023-05-16T00:58:33.929Z,100.00
2023-05-16T01:01:03.582Z,100.00
2023-05-16T01:03:30.358Z,100.00
2023-05-16T01:05:57.950Z,100.00
2023-05-16T01:08:24.348Z,100.00
2023-05-16T01:11:02.646Z,100.00
2023-05-16T01:13:58.511Z,100.00
2023-05-16T01:17:00.180Z,100.00
2023-05-16T01:19:56.123Z,100.00
2023-05-16T01:22:42.339Z,100.00
2023-05-16T01:25:32.861Z,100.00
2023-05-16T01:27:59.613Z,100.00
2023-05-16T01:30:26.028Z,100.00
2023-05-16T01:32:52.675Z,100.00
2023-05-16T01:35:19.252Z,100.00
2023-05-16T01:37:58.752Z,100.00
2023-05-16T01:40:45.870Z,99.25
2023-05-16T01:43:17.029Z,99.30
2023-05-16T01:45:51.038Z,100.00
2023-05-16T01:48:22.615Z,100.00
2023-05-16T01:50:55.925Z,100.00
2023-05-16T01:53:33.299Z,100.00
2023-05-16T01:56:02.176Z,100.00
2023-05-16T01:58:32.967Z,100.00
2023-05-16T02:01:03.976Z,100.00
2023-05-16T02:03:34.193Z,100.00
2023-05-16T02:06:01.034Z,100.00
2023-05-16T02:08:28.676Z,100.00
2023-05-16T02:10:55.069Z,100.00
2023-05-16T02:13:21.466Z,100.00
2023-05-16T02:15:47.873Z,100.00
2023-05-16T02:18:14.399Z,100.00
2023-05-16T02:20:42.668Z,100.00
2023-05-16T02:23:09.100Z,100.00
2023-05-16T02:25:35.552Z,99.50
2023-05-16T02:28:01.967Z,100.00
2023-05-16T02:30:28.392Z,100.00
2023-05-16T02:32:55.072Z,100.00
2023-05-16T02:35:21.621Z,100.00
2023-05-16T02:37:48.019Z,100.00
2023-05-16T02:40:14.428Z,100.00
2023-05-16T02:42:40.909Z,100.00
2023-05-16T02:45:07.791Z,100.00
2023-05-16T02:47:34.252Z,100.00
2023-05-16T02:50:00.694Z,100.00
2023-05-16T02:52:27.099Z,99.06
2023-05-16T02:57:22.877Z,99.91
2023-05-16T02:59:49.306Z,99.93
2023-05-16T03:02:15.721Z,100.00
2023-05-16T03:04:42.124Z,100.00
2023-05-16T03:07:08.532Z,100.00
2023-05-16T03:09:34.968Z,100.00
2023-05-16T03:12:01.587Z,100.00
2023-05-16T03:14:28.013Z,100.00
2023-05-16T03:16:54.422Z,100.00
2023-05-16T03:19:20.926Z,99.67
2023-05-16T03:21:47.398Z,100.00
2023-05-16T03:24:13.881Z,100.00
2023-05-16T03:26:42.994Z,100.00
2023-05-16T03:29:09.965Z,100.00
2023-05-16T03:31:37.004Z,100.00
2023-05-16T03:34:03.836Z,100.00
2023-05-16T03:36:30.531Z,100.00
2023-05-16T03:38:56.977Z,100.00
2023-05-16T03:41:23.405Z,100.00
2023-05-16T03:43:49.935Z,100.00
2023-05-16T03:46:16.358Z,99.30
2023-05-16T03:48:42.802Z,99.43
2023-05-16T03:51:09.211Z,100.00
2023-05-16T03:53:37.089Z,100.00
2023-05-16T03:56:03.950Z,100.00
2023-05-16T03:58:30.658Z,100.00
2023-05-16T04:00:57.438Z,100.00
2023-05-16T04:03:28.372Z,100.00
2023-05-16T04:05:56.110Z,100.00
2023-05-16T04:08:22.627Z,100.00
2023-05-16T04:10:49.058Z,100.00
2023-05-16T04:13:16.163Z,100.00
2023-05-16T04:15:42.607Z,100.00
2023-05-16T04:18:09.540Z,100.00
2023-05-16T04:20:36.674Z,100.00
2023-05-16T04:23:03.090Z,100.00
2023-05-16T04:25:29.847Z,100.00
2023-05-16T04:27:57.226Z,100.00
2023-05-16T04:30:23.673Z,100.00
2023-05-16T04:32:50.121Z,100.00
2023-05-16T04:35:16.591Z,100.00
2023-05-16T04:37:43.017Z,100.00
2023-05-16T04:40:09.915Z,100.00
2023-05-16T04:42:36.520Z,100.00
2023-05-16T04:45:04.055Z,100.00
2023-05-16T04:47:31.418Z,100.00
2023-05-16T04:49:57.860Z,100.00
2023-05-16T04:52:24.289Z,100.00
2023-05-16T04:54:52.270Z,100.00
2023-05-16T04:57:18.681Z,100.00
2023-05-16T04:59:45.098Z,100.00
2023-05-16T05:02:11.648Z,100.00
2023-05-16T05:04:38.189Z,100.00
2023-05-16T05:07:04.883Z,100.00
2023-05-16T05:09:31.302Z,99.93
2023-05-16T05:11:57.711Z,100.00
2023-05-16T05:14:24.220Z,99.82
2023-05-16T05:16:50.675Z,100.00
2023-05-16T05:19:17.746Z,100.00
2023-05-16T05:21:44.237Z,99.98
2023-05-16T05:24:11.415Z,98.98
2023-05-16T05:26:37.909Z,99.31
2023-05-16T05:29:06.021Z,98.54
2023-05-16T05:31:34.716Z,97.77
2023-05-16T05:34:01.418Z,97.95
2023-05-16T05:36:27.940Z,97.88
2023-05-16T05:38:54.387Z,97.14
2023-05-16T05:41:22.315Z,96.48
2023-05-16T05:43:49.118Z,95.77
2023-05-16T05:46:16.882Z,97.42
2023-05-16T05:48:43.618Z,95.99
2023-05-16T05:51:10.151Z,95.22
2023-05-16T05:53:36.821Z,95.16
2023-05-16T05:56:03.277Z,94.64
2023-05-16T05:58:29.726Z,95.02
2023-05-16T06:00:56.421Z,94.54
2023-05-16T06:03:23.166Z,94.41
2023-05-16T06:05:49.728Z,94.64
2023-05-16T06:08:16.153Z,93.30
2023-05-16T06:10:42.575Z,92.68
2023-05-16T06:13:09.076Z,93.63
2023-05-16T06:15:35.490Z,93.99
2023-05-16T06:18:02.103Z,93.71
2023-05-16T06:20:28.563Z,93.76
2023-05-16T06:22:54.987Z,93.76
2023-05-16T06:25:21.483Z,93.57
2023-05-16T06:27:47.873Z,94.28
2023-05-16T06:30:14.334Z,93.37
2023-05-16T06:32:41.457Z,92.69
2023-05-16T06:35:09.345Z,92.60
2023-05-16T06:37:35.967Z,92.66
2023-05-16T06:40:02.397Z,92.92
2023-05-16T06:42:28.848Z,93.20
2023-05-16T06:44:55.311Z,92.36
2023-05-16T06:47:21.874Z,91.55
2023-05-16T06:49:48.317Z,90.73
2023-05-16T06:52:14.819Z,90.91
2023-05-16T06:54:41.326Z,90.58
2023-05-16T06:57:08.594Z,90.10
2023-05-16T06:59:35.878Z,90.15
2023-05-16T07:02:02.662Z,90.61
2023-05-16T07:04:29.192Z,91.09
2023-05-16T07:06:55.711Z,91.65
2023-05-16T07:09:22.170Z,91.15
2023-05-16T07:11:48.627Z,88.92
2023-05-16T07:14:15.077Z,89.99
2023-05-16T07:16:41.748Z,88.51
2023-05-16T07:19:08.616Z,88.68
2023-05-16T07:21:35.126Z,89.54
2023-05-16T07:24:01.783Z,88.44
2023-05-16T07:26:28.274Z,88.45
2023-05-16T07:28:55.265Z,86.79
2023-05-16T07:31:21.845Z,88.08
2023-05-16T07:33:49.165Z,87.06
2023-05-16T07:36:17.545Z,87.47
2023-05-16T07:38:44.801Z,87.00
2023-05-16T07:41:11.552Z,87.96
2023-05-16T07:43:38.041Z,87.79
2023-05-16T07:46:05.092Z,88.55
2023-05-16T07:48:31.678Z,88.25
2023-05-16T07:50:58.215Z,88.01
2023-05-16T07:53:24.856Z,88.09
2023-05-16T07:55:51.545Z,87.34
2023-05-16T07:58:18.035Z,87.39
2023-05-16T08:00:44.533Z,86.99
2023-05-16T08:03:11.217Z,86.99
2023-05-16T08:05:37.786Z,87.35
2023-05-16T08:08:04.388Z,86.75
2023-05-16T08:10:31.131Z,88.01
2023-05-16T08:12:57.596Z,87.20
2023-05-16T08:15:24.145Z,87.49
2023-05-16T08:17:51.094Z,87.02
2023-05-16T08:20:17.577Z,86.56
2023-05-16T08:22:44.051Z,86.74
2023-05-16T08:25:10.668Z,86.19
2023-05-16T08:27:37.110Z,86.51
2023-05-16T08:30:03.773Z,86.61
2023-05-16T08:32:30.355Z,86.13
2023-05-16T08:34:56.933Z,85.87
2023-05-16T08:37:23.383Z,85.09
2023-05-16T08:39:49.898Z,85.48
2023-05-16T08:42:16.398Z,85.76
2023-05-16T08:44:42.910Z,85.71
2023-05-16T08:47:18.094Z,86.25
2023-05-16T08:49:48.185Z,86.53
2023-05-16T08:52:19.176Z,86.19
2023-05-16T08:54:50.370Z,86.54
2023-05-16T08:57:22.009Z,87.88
2023-05-16T08:59:49.228Z,87.22
2023-05-16T09:02:15.963Z,86.70
2023-05-16T09:04:43.279Z,86.86
2023-05-16T09:07:09.966Z,86.66
2023-05-16T09:09:36.392Z,87.13
2023-05-16T17:33:14.158Z,44.24
2023-05-16T17:35:41.043Z,44.26
2023-05-16T17:38:07.507Z,42.84
2023-05-16T17:40:33.936Z,42.78
2023-05-16T17:43:00.385Z,43.27
2023-05-16T17:45:27.168Z,42.44
2023-05-16T17:47:53.919Z,43.13
2023-05-16T17:50:21.766Z,43.05
2023-05-16T17:52:48.326Z,43.23
2023-05-16T17:55:14.808Z,43.59
2023-05-16T17:57:41.341Z,43.55
2023-05-16T18:00:09.226Z,43.46
2023-05-16T18:02:38.731Z,43.59
2023-05-16T18:05:05.747Z,43.65
2023-05-16T18:07:32.290Z,43.82
2023-05-16T18:09:58.944Z,43.81
2023-05-16T18:12:25.396Z,44.46
2023-05-16T18:14:51.843Z,44.06
2023-05-16T18:17:18.383Z,44.33
2023-05-16T18:19:45.008Z,44.79
2023-05-16T18:22:13.137Z,45.36
2023-05-16T18:24:39.971Z,46.03
2023-05-16T18:27:06.520Z,45.98
2023-05-16T18:29:32.999Z,46.41
2023-05-16T18:32:00.060Z,46.99
2023-05-16T18:34:26.530Z,47.34
2023-05-16T18:36:52.963Z,47.38
2023-05-16T18:39:20.356Z,47.90
2023-05-16T18:41:48.293Z,47.76
2023-05-16T18:44:17.268Z,48.03
2023-05-16T18:46:45.952Z,47.64
2023-05-16T18:49:13.338Z,48.28
2023-05-16T18:51:39.839Z,48.12
2023-05-16T18:54:06.353Z,48.23
2023-05-16T18:56:32.992Z,48.24
2023-05-16T18:58:59.458Z,48.27
2023-05-16T19:01:25.956Z,48.52
2023-05-16T19:03:52.608Z,48.76
2023-05-16T19:06:19.173Z,48.82
2023-05-16T19:08:48.076Z,48.67
2023-05-16T19:11:16.387Z,49.02
2023-05-16T19:13:42.878Z,49.13
2023-05-16T19:16:09.470Z,48.99
2023-05-16T19:18:37.063Z,48.97
2023-05-16T19:21:03.704Z,48.71
2023-05-16T19:23:30.326Z,48.91
2023-05-16T19:25:57.213Z,48.95
2023-05-16T19:28:24.642Z,48.65
2023-05-16T19:30:51.301Z,48.68
2023-05-16T19:33:17.870Z,48.99
2023-05-16T19:35:44.313Z,49.01
2023-05-16T19:38:10.914Z,49.03
2023-05-16T19:40:37.388Z,48.93
2023-05-16T19:43:03.837Z,49.29
2023-05-16T19:45:30.625Z,49.82
2023-05-16T19:47:57.375Z,49.47
2023-05-16T19:50:23.933Z,49.74
2023-05-16T19:52:50.395Z,49.51
2023-05-16T19:55:16.841Z,50.37
2023-05-16T19:57:43.294Z,50.22
2023-05-16T20:00:10.593Z,50.28
2023-05-16T20:02:39.772Z,50.48
2023-05-16T20:05:06.865Z,50.16
2023-05-16T20:07:33.432Z,50.01
2023-05-16T20:09:59.912Z,51.14
2023-05-16T20:12:26.406Z,50.93
2023-05-16T20:14:52.865Z,50.60
2023-05-16T20:17:19.302Z,50.75
2023-05-16T20:19:46.601Z,51.25
2023-05-16T20:22:13.130Z,50.34
2023-05-16T20:24:39.625Z,50.52
2023-05-16T20:27:06.082Z,50.91
2023-05-16T20:29:33.820Z,51.04
2023-05-16T20:32:00.652Z,50.93
2023-05-16T20:34:27.920Z,51.34
2023-05-16T20:36:54.408Z,51.06
2023-05-16T20:39:20.862Z,51.84
2023-05-16T20:41:47.342Z,52.11
2023-05-16T20:44:15.246Z,52.21
2023-05-16T20:46:43.069Z,52.24
2023-05-16T20:49:09.593Z,52.54
2023-05-16T20:51:36.274Z,52.53
2023-05-16T20:54:02.762Z,52.93
2023-05-16T20:56:29.549Z,52.86
2023-05-16T20:58:56.015Z,53.36
2023-05-16T21:01:22.460Z,53.79
2023-05-16T21:03:48.976Z,54.17
2023-05-16T21:06:15.467Z,53.10
2023-05-16T21:08:41.919Z,53.81
2023-05-16T21:11:08.415Z,53.90
2023-05-16T21:13:34.895Z,53.76
2023-05-16T21:16:01.422Z,54.11
2023-05-16T21:18:27.909Z,53.93
2023-05-16T21:20:54.406Z,54.73
2023-05-16T21:23:21.102Z,54.59
2023-05-16T21:25:47.593Z,54.67
2023-05-16T21:28:14.110Z,54.42
2023-05-16T21:30:40.602Z,54.85
2023-05-16T21:33:07.222Z,55.23
2023-05-16T21:35:33.895Z,55.16
2023-05-16T21:38:00.350Z,55.27
2023-05-16T21:40:28.742Z,55.33
2023-05-16T21:42:55.311Z,55.81
2023-05-16T21:45:21.898Z,55.42
2023-05-16T21:47:48.555Z,55.54
2023-05-16T21:50:15.095Z,56.52
2023-05-16T21:52:41.966Z,57.22
2023-05-16T21:55:08.897Z,57.17
2023-05-16T21:57:35.607Z,57.10
2023-05-16T22:00:06.592Z,57.63
2023-05-16T22:02:34.486Z,58.24
2023-05-16T22:05:01.293Z,58.08
2023-05-16T22:07:29.309Z,58.96
2023-05-16T22:09:56.399Z,58.89
2023-05-16T22:12:23.906Z,58.38
2023-05-16T22:14:50.952Z,59.06
2023-05-16T22:17:19.498Z,60.06
2023-05-16T22:19:46.185Z,59.56
2023-05-16T22:22:12.793Z,59.29
2023-05-16T22:24:39.227Z,60.45
2023-05-16T22:27:06.148Z,60.23
2023-05-16T22:29:37.907Z,60.27
2023-05-16T22:32:08.576Z,60.66
2023-05-16T22:34:35.946Z,60.43
2023-05-16T22:37:02.401Z,60.88
2023-05-16T22:39:28.857Z,61.39
2023-05-16T22:41:55.338Z,61.26
2023-05-16T22:44:21.810Z,61.32
2023-05-16T22:46:48.398Z,61.78
2023-05-16T22:49:14.932Z,61.63
2023-05-16T22:51:41.428Z,61.55
2023-05-16T22:54:07.879Z,61.51
2023-05-16T22:56:34.402Z,62.08
2023-05-16T22:59:01.056Z,61.75
2023-05-16T23:01:27.553Z,61.52
2023-05-16T23:03:54.072Z,62.00
2023-05-16T23:06:20.550Z,62.27
2023-05-16T23:08:47.019Z,62.41
2023-05-16T23:11:13.523Z,62.44
2023-05-16T23:13:39.986Z,62.86
2023-05-16T23:16:06.520Z,63.69
2023-05-16T23:18:33.079Z,63.28
2023-05-16T23:20:59.696Z,64.06
2023-05-16T23:23:26.171Z,64.64
2023-05-16T23:25:52.628Z,64.40
2023-05-16T23:28:19.640Z,65.50
2023-05-16T23:30:46.093Z,65.59
2023-05-16T23:33:14.107Z,65.76
2023-05-16T23:35:40.735Z,65.77
2023-05-16T23:38:07.202Z,67.30
2023-05-16T23:40:33.665Z,67.52
2023-05-16T23:43:00.136Z,66.96
2023-05-16T23:45:27.940Z,69.01
2023-05-16T23:47:54.600Z,68.66
2023-05-16T23:50:21.715Z,69.51
2023-05-16T23:52:48.190Z,69.81
2023-05-16T23:55:15.368Z,70.78
2023-05-16T23:57:42.323Z,70.53
